Time;durP1;ratioP1;P1;durP2;ratioP2;P2;SDS_P1;SDS_P2;PMS_P1;PMS_P2;Temp;Humidity;BMP_temperature;BMP_pressure;BME280_temperature;BME280_humidity;BME280_pressure;Samples;Min_cycle;Max_cycle;Signal;HPM_P1;HPM_P2
2022/03/06 00:01:41;;;;;;;11.17;5.60;;;8.00;35.30;;;;;;5041731;28;20465;-86
2022/03/06 00:04:08;;;;;;;11.10;6.17;;;7.90;35.00;;;;;;5024500;28;20461;-86
2022/03/06 00:06:37;;;;;;;12.70;6.30;;;7.90;35.30;;;;;;5062035;28;20461;-86
2022/03/06 00:09:05;;;;;;;10.70;6.90;;;7.90;35.70;;;;;;5026678;28;20563;-86
2022/03/06 00:11:32;;;;;;;11.63;8.30;;;8.00;36.00;;;;;;5043429;28;20473;-86
2022/03/06 00:13:58;;;;;;;11.50;7.17;;;8.00;36.00;;;;;;5024993;28;20534;-84
2022/03/06 00:16:26;;;;;;;12.00;6.90;;;8.00;36.20;;;;;;5060174;28;20461;-86
2022/03/06 00:18:53;;;;;;;12.83;6.07;;;8.00;35.80;;;;;;5030862;28;20444;-86
2022/03/06 00:21:20;;;;;;;9.80;6.10;;;8.00;35.70;;;;;;5041203;28;20473;-86
2022/03/06 00:23:48;;;;;;;9.00;5.47;;;7.90;35.80;;;;;;5042325;28;20636;-86
2022/03/06 00:26:15;;;;;;;12.13;5.57;;;7.80;36.00;;;;;;5039561;28;20464;-87
2022/03/06 00:28:42;;;;;;;11.60;6.23;;;7.80;36.40;;;;;;5061233;28;20562;-86
2022/03/06 00:31:09;;;;;;;9.63;5.83;;;7.80;37.20;;;;;;5038596;28;20471;-86
2022/03/06 00:33:36;;;;;;;10.33;5.30;;;7.90;37.30;;;;;;5027609;28;20468;-86
2022/03/06 00:36:03;;;;;;;8.90;5.80;;;7.90;36.80;;;;;;5041655;28;20448;-84
2022/03/06 00:38:30;;;;;;;11.47;6.40;;;8.00;36.70;;;;;;5006533;28;20449;-85
2022/03/06 00:40:59;;;;;;;10.93;6.00;;;7.80;36.00;;;;;;5026290;28;20904;-86
2022/03/06 00:43:26;;;;;;;8.40;5.57;;;7.70;36.30;;;;;;5025165;28;20460;-86
2022/03/06 00:45:53;;;;;;;13.93;6.37;;;7.70;37.00;;;;;;5058612;28;20622;-85
2022/03/06 00:48:20;;;;;;;8.27;5.70;;;7.70;36.70;;;;;;5040601;28;20471;-85
2022/03/06 00:50:47;;;;;;;8.93;5.00;;;7.70;36.90;;;;;;5040892;28;20909;-87
2022/03/06 00:53:15;;;;;;;12.03;5.73;;;7.70;37.20;;;;;;5042252;28;20460;-86
2022/03/06 00:55:42;;;;;;;10.87;5.00;;;7.80;37.30;;;;;;5044576;28;20506;-84
2022/03/06 00:58:12;;;;;;;11.13;6.60;;;7.80;36.90;;;;;;5024596;28;20460;-87
2022/03/06 01:00:42;;;;;;;9.87;6.07;;;7.70;36.90;;;;;;5043090;28;20476;-86
2022/03/06 01:03:10;;;;;;;8.90;5.47;;;7.70;37.90;;;;;;5026671;28;20460;-86
2022/03/06 01:05:37;;;;;;;8.93;5.73;;;7.80;37.90;;;;;;5060313;28;20961;-85
2022/03/06 01:08:05;;;;;;;9.97;5.03;;;7.80;38.10;;;;;;5042124;28;20457;-84
2022/03/06 01:10:33;;;;;;;12.10;6.13;;;7.90;38.10;;;;;;5013867;28;21007;-86
2022/03/06 01:13:00;;;;;;;12.63;7.10;;;7.90;38.00;;;;;;5058909;28;20476;-86
2022/03/06 01:15:29;;;;;;;11.47;6.17;;;7.90;37.50;;;;;;5043119;28;20460;-86
2022/03/06 01:17:57;;;;;;;10.90;6.20;;;7.90;37.20;;;;;;5060396;28;20464;-87
2022/03/06 01:20:24;;;;;;;11.33;5.73;;;7.90;37.70;;;;;;5044184;28;24621;-86
2022/03/06 01:22:52;;;;;;;11.70;5.60;;;7.90;37.50;;;;;;5041827;28;20498;-85
2022/03/06 01:25:19;;;;;;;8.60;5.50;;;8.00;38.00;;;;;;5030671;28;21450;-85
2022/03/06 01:27:47;;;;;;;11.17;5.57;;;8.00;38.20;;;;;;5064425;28;20839;-85
2022/03/06 01:30:16;;;;;;;10.73;6.13;;;8.00;38.20;;;;;;5029439;28;20505;-86
2022/03/06 01:32:45;;;;;;;15.03;6.27;;;8.00;37.90;;;;;;5044716;28;20480;-86
2022/03/06 01:35:12;;;;;;;12.87;5.90;;;8.00;38.30;;;;;;5062802;28;21047;-86
2022/03/06 01:37:39;;;;;;;15.33;7.87;;;8.00;39.00;;;;;;5015069;28;20453;-86
2022/03/06 01:40:08;;;;;;;12.53;6.77;;;8.00;39.20;;;;;;5046082;28;21090;-86
2022/03/06 01:42:39;;;;;;;12.77;6.83;;;8.00;39.70;;;;;;5012716;28;20456;-84
2022/03/06 01:45:08;;;;;;;15.20;7.30;;;7.90;39.40;;;;;;5046711;28;20456;-85
2022/03/06 01:47:39;;;;;;;14.13;6.70;;;7.90;39.40;;;;;;5045510;28;20488;-86
2022/03/06 01:50:10;;;;;;;14.80;6.47;;;7.90;39.00;;;;;;5027223;28;20491;-86
2022/03/06 01:52:38;;;;;;;10.60;5.77;;;7.80;39.10;;;;;;5047772;28;20896;-86
2022/03/06 01:55:05;;;;;;;11.17;5.70;;;7.80;39.50;;;;;;5011683;28;20461;-86
2022/03/06 01:57:33;;;;;;;13.40;6.10;;;7.80;39.50;;;;;;5012638;28;20459;-86
2022/03/06 02:00:01;;;;;;;11.53;6.00;;;7.80;39.80;;;;;;5028084;28;20562;-86
2022/03/06 02:02:39;;;;;;;12.73;6.37;;;7.80;39.70;;;;;;5028734;28;20856;-85
2022/03/06 02:05:09;;;;;;;12.97;5.33;;;7.70;39.70;;;;;;5012611;28;20495;-84
2022/03/06 02:07:36;;;;;;;11.43;5.80;;;7.70;39.80;;;;;;5029843;28;20813;-85
2022/03/06 02:10:04;;;;;;;9.63;5.83;;;7.70;40.00;;;;;;5018201;28;20839;-87
2022/03/06 02:12:32;;;;;;;13.53;5.83;;;7.60;39.80;;;;;;5029600;28;20475;-86
2022/03/06 02:15:01;;;;;;;10.00;5.80;;;7.60;39.90;;;;;;5011311;28;20444;-86
2022/03/06 02:17:29;;;;;;;10.33;5.40;;;7.50;39.70;;;;;;5027465;28;20512;-87
2022/03/06 02:19:59;;;;;;;9.33;5.97;;;7.50;39.70;;;;;;5011677;28;20775;-86
2022/03/06 02:22:29;;;;;;;8.50;5.30;;;7.40;40.00;;;;;;5061803;28;21308;-86
2022/03/06 02:24:57;;;;;;;9.47;5.40;;;7.40;39.80;;;;;;5026054;28;20533;-86
2022/03/06 02:27:25;;;;;;;11.20;5.77;;;7.40;40.10;;;;;;5007355;28;20468;-86
2022/03/06 02:29:52;;;;;;;8.77;4.63;;;7.40;39.90;;;;;;5046023;28;20509;-85
2022/03/06 02:32:22;;;;;;;9.90;5.13;;;7.40;40.60;;;;;;5012793;28;20859;-85
2022/03/06 02:34:51;;;;;;;7.30;5.10;;;7.40;40.30;;;;;;5012550;28;20452;-85
2022/03/06 02:37:21;;;;;;;12.57;5.80;;;7.40;39.90;;;;;;5031812;28;20662;-85
2022/03/06 02:39:50;;;;;;;11.20;5.00;;;7.40;40.00;;;;;;5014578;28;20465;-85
2022/03/06 02:42:25;;;;;;;10.40;5.80;;;7.40;40.30;;;;;;5029937;28;20448;-85
2022/03/06 02:44:52;;;;;;;6.50;5.00;;;7.30;40.30;;;;;;5011063;28;20459;-85
2022/03/06 02:47:19;;;;;;;8.00;4.97;;;7.30;40.60;;;;;;5032539;28;20829;-86
2022/03/06 02:49:46;;;;;;;9.57;5.50;;;7.30;40.50;;;;;;5046873;28;20453;-85
2022/03/06 02:52:13;;;;;;;11.40;6.47;;;7.30;40.40;;;;;;5045786;28;20476;-86
2022/03/06 02:54:40;;;;;;;10.07;5.83;;;7.30;40.50;;;;;;5064679;28;20468;-85
2022/03/06 02:57:08;;;;;;;12.00;5.13;;;7.30;40.30;;;;;;5012483;28;20641;-85
2022/03/06 02:59:36;;;;;;;12.47;5.30;;;7.30;40.60;;;;;;5018611;28;20467;-86
2022/03/06 03:02:04;;;;;;;8.30;4.77;;;7.30;40.40;;;;;;5027439;28;20445;-86
2022/03/06 03:04:31;;;;;;;10.10;5.77;;;7.20;40.40;;;;;;5060255;28;20452;-86
2022/03/06 03:06:59;;;;;;;7.97;4.93;;;7.20;40.70;;;;;;5027523;28;20468;-85
2022/03/06 03:09:26;;;;;;;8.67;5.47;;;7.20;40.70;;;;;;5043910;28;20461;-86
2022/03/06 03:11:54;;;;;;;10.77;5.20;;;7.20;41.00;;;;;;5027952;28;20795;-86
2022/03/06 03:14:23;;;;;;;9.10;6.07;;;7.20;41.00;;;;;;5028336;28;20476;-86
2022/03/06 03:16:50;;;;;;;12.67;6.30;;;7.20;41.30;;;;;;5046148;28;20468;-86
2022/03/06 03:19:18;;;;;;;6.77;5.03;;;7.20;41.30;;;;;;5029723;28;20455;-86
2022/03/06 03:21:46;;;;;;;12.50;6.00;;;7.20;40.90;;;;;;5027911;28;20558;-86
2022/03/06 03:24:13;;;;;;;9.00;5.33;;;7.20;41.00;;;;;;5029768;28;20492;-86
2022/03/06 03:26:40;;;;;;;14.53;5.27;;;7.20;41.40;;;;;;5048217;28;20879;-86
2022/03/06 03:29:07;;;;;;;14.43;5.70;;;7.10;41.20;;;;;;5063239;28;20460;-86
2022/03/06 03:31:35;;;;;;;8.60;5.17;;;7.10;41.40;;;;;;5029055;28;20833;-86
2022/03/06 03:34:02;;;;;;;8.10;4.83;;;7.10;41.60;;;;;;5049460;28;21199;-86
2022/03/06 03:36:29;;;;;;;11.70;6.13;;;7.10;41.30;;;;;;5026015;28;20815;-86
2022/03/06 03:38:56;;;;;;;10.33;5.23;;;7.10;41.50;;;;;;5043962;28;20827;-86
2022/03/06 03:41:24;;;;;;;17.30;6.43;;;7.00;41.20;;;;;;5043405;28;20473;-86
2022/03/06 03:43:51;;;;;;;8.10;5.40;;;7.00;41.00;;;;;;5043252;28;20492;-85
2022/03/06 03:46:19;;;;;;;6.90;4.73;;;7.10;41.00;;;;;;5028329;28;20457;-86
2022/03/06 03:48:47;;;;;;;9.07;5.00;;;7.10;41.40;;;;;;5028634;28;20547;-85
2022/03/06 03:51:15;;;;;;;12.70;6.97;;;7.10;41.40;;;;;;5045839;28;20984;-86
2022/03/06 03:53:42;;;;;;;7.77;5.33;;;7.10;41.40;;;;;;5026930;28;20473;-85
2022/03/06 03:56:09;;;;;;;11.33;5.40;;;7.10;41.60;;;;;;5009248;28;20979;-84
2022/03/06 03:58:36;;;;;;;14.70;6.60;;;7.10;41.50;;;;;;5028672;28;20453;-85
2022/03/06 04:01:03;;;;;;;7.80;5.13;;;7.00;41.80;;;;;;5060554;28;20480;-86
2022/03/06 04:03:30;;;;;;;9.20;6.27;;;7.10;42.00;;;;;;5045131;28;20972;-86
2022/03/06 04:05:59;;;;;;;13.03;6.50;;;7.10;41.70;;;;;;5026661;28;20912;-86
2022/03/06 04:08:26;;;;;;;14.87;6.27;;;7.10;41.40;;;;;;5045428;28;20476;-86
2022/03/06 04:10:56;;;;;;;11.67;5.83;;;6.90;42.00;;;;;;5007693;28;20477;-86
2022/03/06 04:13:24;;;;;;;10.07;5.00;;;7.00;41.80;;;;;;5012592;28;20476;-86
2022/03/06 04:15:51;;;;;;;13.30;5.63;;;7.00;41.50;;;;;;5041212;28;20464;-87
2022/03/06 04:18:19;;;;;;;11.40;5.90;;;7.00;41.80;;;;;;5043041;28;20611;-84
2022/03/06 04:20:46;;;;;;;8.20;4.50;;;7.00;41.00;;;;;;5041658;28;20565;-86
2022/03/06 04:23:14;;;;;;;9.47;4.70;;;6.90;41.40;;;;;;5026304;28;20449;-86
2022/03/06 04:25:41;;;;;;;10.67;5.40;;;7.00;41.90;;;;;;5009258;28;20463;-85
2022/03/06 04:28:08;;;;;;;11.93;6.90;;;6.90;41.00;;;;;;5057923;28;20468;-85
2022/03/06 04:30:36;;;;;;;9.90;5.20;;;6.90;41.00;;;;;;5027589;28;20475;-85
2022/03/06 04:33:04;;;;;;;7.87;5.17;;;6.90;41.50;;;;;;5030395;28;20551;-85
2022/03/06 04:35:31;;;;;;;6.40;4.60;;;6.90;41.40;;;;;;5035002;28;20503;-86
2022/03/06 04:37:58;;;;;;;7.63;4.50;;;6.90;41.20;;;;;;5025258;28;20456;-84
2022/03/06 04:40:26;;;;;;;10.63;5.80;;;6.90;40.90;;;;;;5025644;28;20962;-86
2022/03/06 04:42:53;;;;;;;10.90;5.47;;;6.80;40.90;;;;;;5042570;28;20483;-86
2022/03/06 04:45:20;;;;;;;10.37;5.40;;;6.80;41.20;;;;;;5045237;28;20459;-86
2022/03/06 04:47:47;;;;;;;8.70;5.47;;;6.80;41.50;;;;;;5006834;28;20452;-86
2022/03/06 04:50:14;;;;;;;10.30;6.20;;;6.80;41.20;;;;;;5037910;28;20480;-85
2022/03/06 04:52:41;;;;;;;6.70;4.73;;;6.80;40.90;;;;;;5017117;28;20477;-84
2022/03/06 04:55:09;;;;;;;13.47;5.57;;;6.80;41.10;;;;;;5059178;28;20457;-85
2022/03/06 04:57:37;;;;;;;7.80;4.53;;;6.80;41.50;;;;;;5040030;28;21156;-85
2022/03/06 05:00:05;;;;;;;8.50;5.73;;;6.80;41.40;;;;;;5042636;28;20487;-85
2022/03/06 05:02:32;;;;;;;10.60;4.60;;;6.80;41.40;;;;;;5043688;28;20962;-85
2022/03/06 05:04:59;;;;;;;8.03;4.90;;;6.80;41.10;;;;;;5032243;28;20452;-86
2022/03/06 05:07:26;;;;;;;6.37;4.10;;;6.70;40.70;;;;;;5026849;28;20454;-86
2022/03/06 05:09:53;;;;;;;8.07;4.40;;;6.70;40.60;;;;;;5005939;28;20473;-86
2022/03/06 05:12:20;;;;;;;9.60;5.70;;;6.60;40.90;;;;;;5033584;28;20477;-86
2022/03/06 05:14:48;;;;;;;8.30;5.30;;;6.60;40.70;;;;;;5060730;28;20697;-86
2022/03/06 05:17:16;;;;;;;12.10;5.30;;;6.60;40.60;;;;;;5025933;28;20463;-85
2022/03/06 05:19:43;;;;;;;10.60;6.10;;;6.60;41.70;;;;;;5007176;28;20449;-86
2022/03/06 05:22:10;;;;;;;7.83;4.97;;;6.50;40.70;;;;;;5058747;28;20453;-86
2022/03/06 05:24:37;;;;;;;8.63;5.60;;;6.50;40.40;;;;;;5041756;28;20465;-86
2022/03/06 05:27:04;;;;;;;10.83;5.37;;;6.40;41.10;;;;;;5008545;28;20534;-85
2022/03/06 05:29:31;;;;;;;8.27;4.53;;;6.40;40.80;;;;;;5043007;28;20453;-85
2022/03/06 05:31:59;;;;;;;8.60;5.10;;;6.40;41.10;;;;;;5011469;28;20465;-86
2022/03/06 05:34:26;;;;;;;8.90;5.33;;;6.40;41.40;;;;;;5043475;28;20498;-86
2022/03/06 05:36:54;;;;;;;8.50;5.30;;;6.40;41.00;;;;;;5060313;28;20944;-86
2022/03/06 05:39:21;;;;;;;9.33;4.83;;;6.30;40.60;;;;;;5027627;28;20471;-86
2022/03/06 05:41:48;;;;;;;8.27;4.90;;;6.30;41.00;;;;;;5042979;28;20476;-86
2022/03/06 05:44:15;;;;;;;10.17;5.70;;;6.20;40.90;;;;;;5003427;28;20986;-85
2022/03/06 05:46:42;;;;;;;9.33;4.90;;;6.10;41.00;;;;;;5046281;28;20463;-86
2022/03/06 05:49:13;;;;;;;10.60;6.30;;;6.10;41.20;;;;;;5024641;28;20467;-86
2022/03/06 05:51:40;;;;;;;12.33;5.60;;;6.10;41.10;;;;;;5029016;28;20510;-86
2022/03/06 05:54:08;;;;;;;10.40;5.80;;;6.20;41.60;;;;;;5045004;28;20468;-86
2022/03/06 05:56:35;;;;;;;10.43;5.37;;;6.20;41.20;;;;;;5026184;28;20468;-86
2022/03/06 05:59:03;;;;;;;6.70;4.90;;;6.20;41.20;;;;;;5044311;28;20465;-85
2022/03/06 06:01:30;;;;;;;6.63;4.77;;;6.10;41.00;;;;;;5050296;28;20556;-86
2022/03/06 06:03:57;;;;;;;4.57;3.80;;;6.10;41.60;;;;;;5025602;28;20444;-85
2022/03/06 06:06:26;;;;;;;10.53;5.90;;;6.10;41.80;;;;;;5025754;28;20456;-84
2022/03/06 06:08:54;;;;;;;7.73;4.93;;;6.20;41.70;;;;;;5041458;28;20444;-86
2022/03/06 06:11:21;;;;;;;10.10;4.83;;;6.20;41.40;;;;;;5031339;28;20483;-85
2022/03/06 06:13:48;;;;;;;15.90;5.00;;;6.10;41.20;;;;;;5063698;28;20476;-86
2022/03/06 06:16:15;;;;;;;11.63;5.67;;;6.10;41.10;;;;;;5027417;28;20452;-85
2022/03/06 06:18:42;;;;;;;8.57;5.33;;;6.00;40.50;;;;;;5060784;28;20487;-83
2022/03/06 06:21:11;;;;;;;8.23;4.80;;;6.00;41.10;;;;;;5065548;28;20503;-84
2022/03/06 06:23:40;;;;;;;14.33;4.97;;;5.90;41.50;;;;;;5043897;28;20460;-84
2022/03/06 06:26:07;;;;;;;10.80;5.47;;;5.90;41.90;;;;;;5037251;28;20449;-85
2022/03/06 06:28:34;;;;;;;22.20;11.47;;;5.90;41.70;;;;;;5048756;28;20452;-86
2022/03/06 06:31:01;;;;;;;27.07;14.50;;;5.90;42.00;;;;;;5044632;28;20490;-86
2022/03/06 06:33:29;;;;;;;23.40;13.63;;;5.90;42.20;;;;;;5047860;28;21153;-86
2022/03/06 06:35:56;;;;;;;9.60;4.67;;;6.00;42.40;;;;;;5032726;28;20468;-85
2022/03/06 06:38:23;;;;;;;7.80;5.80;;;5.90;41.70;;;;;;5064985;28;20457;-86
2022/03/06 06:40:53;;;;;;;8.97;5.07;;;5.70;42.20;;;;;;5036569;28;20503;-85
2022/03/06 06:43:20;;;;;;;7.77;5.63;;;5.90;43.60;;;;;;5046792;28;20461;-86
2022/03/06 06:45:48;;;;;;;10.23;6.00;;;6.00;43.00;;;;;;5042660;28;20472;-85
2022/03/06 06:48:15;;;;;;;8.60;5.60;;;6.10;42.30;;;;;;5065590;28;20506;-86
2022/03/06 06:50:42;;;;;;;9.93;6.57;;;6.10;42.50;;;;;;5009770;28;20467;-85
2022/03/06 06:53:09;;;;;;;13.47;7.27;;;6.10;41.80;;;;;;5064336;28;20993;-87
2022/03/06 06:55:36;;;;;;;13.60;7.93;;;6.10;42.20;;;;;;5046949;28;20457;-85
2022/03/06 06:58:05;;;;;;;14.40;9.43;;;6.10;42.20;;;;;;5046678;28;20468;-86
2022/03/06 07:00:32;;;;;;;14.93;8.23;;;6.10;42.00;;;;;;5037746;28;20473;-86
2022/03/06 07:02:59;;;;;;;18.17;12.37;;;6.10;41.60;;;;;;5026440;28;20448;-87
2022/03/06 07:05:26;;;;;;;22.20;10.57;;;6.10;41.40;;;;;;5043214;28;20458;-86
2022/03/06 07:07:54;;;;;;;16.93;9.50;;;6.10;41.90;;;;;;5055420;28;20453;-85
2022/03/06 07:10:21;;;;;;;25.73;12.00;;;6.20;42.50;;;;;;5032404;28;20475;-86
2022/03/06 07:12:53;;;;;;;21.60;12.63;;;6.20;42.60;;;;;;5067511;28;20451;-86
2022/03/06 07:15:21;;;;;;;30.60;13.50;;;6.20;42.40;;;;;;5068173;28;20468;-85
2022/03/06 07:17:49;;;;;;;77.83;30.00;;;6.20;42.40;;;;;;5064585;28;20466;-85
2022/03/06 07:20:16;;;;;;;58.67;24.30;;;6.30;42.30;;;;;;5065255;28;20567;-85
2022/03/06 07:22:43;;;;;;;28.03;11.73;;;6.30;42.20;;;;;;5063648;28;20931;-86
2022/03/06 07:25:10;;;;;;;21.13;7.70;;;6.40;42.40;;;;;;5065667;28;20467;-86
2022/03/06 07:27:37;;;;;;;7.37;5.37;;;6.40;41.90;;;;;;5083162;28;20928;-86
2022/03/06 07:30:05;;;;;;;11.90;7.10;;;6.40;41.60;;;;;;5064701;28;20481;-85
2022/03/06 07:32:33;;;;;;;7.93;5.73;;;6.40;41.30;;;;;;5064815;28;20545;-86
2022/03/06 07:35:00;;;;;;;11.00;6.27;;;6.50;41.30;;;;;;5082892;28;20476;-86
2022/03/06 07:37:27;;;;;;;15.73;6.70;;;6.60;42.10;;;;;;5066584;28;20465;-86
2022/03/06 07:39:53;;;;;;;11.43;6.93;;;6.50;40.60;;;;;;5061673;28;20513;-86
2022/03/06 07:42:20;;;;;;;10.33;6.30;;;6.50;40.00;;;;;;5037797;28;20458;-85
2022/03/06 07:44:47;;;;;;;13.73;6.87;;;6.50;41.00;;;;;;5060284;28;20614;-85
2022/03/06 07:47:14;;;;;;;13.57;7.40;;;6.70;40.70;;;;;;5080653;28;20455;-85
2022/03/06 07:49:42;;;;;;;8.03;6.00;;;6.80;40.10;;;;;;5062045;28;20447;-84
2022/03/06 07:52:09;;;;;;;21.83;9.00;;;6.90;39.60;;;;;;5080868;28;20460;-85
2022/03/06 07:54:36;;;;;;;14.77;7.87;;;6.90;40.00;;;;;;5045379;28;21068;-85
2022/03/06 07:57:04;;;;;;;12.67;7.20;;;7.00;39.50;;;;;;5079858;28;20456;-84
2022/03/06 07:59:30;;;;;;;11.83;6.80;;;7.10;39.30;;;;;;5047480;28;20815;-85
2022/03/06 08:01:57;;;;;;;8.57;6.60;;;7.00;38.80;;;;;;5044431;28;20475;-85
2022/03/06 08:04:24;;;;;;;14.53;7.37;;;6.90;39.00;;;;;;5077577;28;20815;-85
2022/03/06 08:06:53;;;;;;;19.17;7.50;;;7.00;39.50;;;;;;5079984;28;20970;-84
2022/03/06 08:09:20;;;;;;;9.80;5.90;;;7.00;39.50;;;;;;5078613;28;20454;-85
2022/03/06 08:11:46;;;;;;;9.53;5.70;;;6.90;39.50;;;;;;5043518;28;20487;-85
2022/03/06 08:14:13;;;;;;;11.67;6.27;;;6.70;39.70;;;;;;5043841;28;20933;-85
2022/03/06 08:16:41;;;;;;;13.10;6.20;;;6.80;40.00;;;;;;5044848;28;20471;-83
2022/03/06 08:19:07;;;;;;;12.80;6.40;;;6.90;39.90;;;;;;5026842;28;20459;-86
2022/03/06 08:21:34;;;;;;;11.80;6.00;;;7.00;40.00;;;;;;5060774;28;20490;-86
2022/03/06 08:24:03;;;;;;;9.77;6.97;;;7.00;39.60;;;;;;5043181;28;20459;-86
2022/03/06 08:26:30;;;;;;;9.87;7.10;;;7.00;39.90;;;;;;5042879;28;20996;-87
2022/03/06 08:28:57;;;;;;;8.57;7.00;;;7.10;39.50;;;;;;5043389;28;20853;-87
2022/03/06 08:31:24;;;;;;;10.60;6.73;;;7.40;39.80;;;;;;5061143;28;20986;-87
2022/03/06 08:33:52;;;;;;;13.40;7.73;;;7.60;39.60;;;;;;5078187;28;20479;-86
2022/03/06 08:36:19;;;;;;;10.10;6.30;;;7.70;38.70;;;;;;5043153;28;20456;-86
2022/03/06 08:38:46;;;;;;;16.57;6.10;;;7.60;38.10;;;;;;5077929;28;20455;-86
2022/03/06 08:41:14;;;;;;;10.63;6.33;;;7.60;38.70;;;;;;5063260;28;20479;-86
2022/03/06 08:43:41;;;;;;;9.10;6.27;;;7.60;38.10;;;;;;5082057;28;20470;-84
2022/03/06 08:46:08;;;;;;;9.77;6.43;;;7.60;38.30;;;;;;5061230;28;20463;-86
2022/03/06 08:48:36;;;;;;;12.47;7.33;;;7.80;38.70;;;;;;5042883;28;20974;-87
2022/03/06 08:51:04;;;;;;;12.50;6.80;;;8.00;38.60;;;;;;5058338;28;20470;-87
2022/03/06 08:53:32;;;;;;;14.77;8.93;;;8.10;38.30;;;;;;5061273;28;20679;-87
2022/03/06 08:55:58;;;;;;;15.83;7.67;;;8.30;38.30;;;;;;5043059;28;21063;-87
2022/03/06 08:58:27;;;;;;;18.03;8.53;;;8.30;38.00;;;;;;5062330;28;21004;-88
2022/03/06 09:00:54;;;;;;;13.60;7.37;;;8.20;37.60;;;;;;5059057;28;21050;-87
2022/03/06 09:03:21;;;;;;;12.93;7.00;;;8.10;37.50;;;;;;5072999;28;20460;-87
2022/03/06 09:05:48;;;;;;;11.67;7.17;;;8.10;36.90;;;;;;5057218;28;20554;-86
2022/03/06 09:08:15;;;;;;;11.67;7.77;;;8.10;36.90;;;;;;5077479;28;20494;-88
2022/03/06 09:10:42;;;;;;;11.97;7.73;;;8.20;36.90;;;;;;5027938;28;20494;-87
2022/03/06 09:13:10;;;;;;;12.53;6.60;;;8.20;36.50;;;;;;5077717;28;20577;-87
2022/03/06 09:15:38;;;;;;;11.50;6.40;;;8.30;36.60;;;;;;5060533;28;20498;-86
2022/03/06 09:18:06;;;;;;;12.27;8.50;;;8.30;36.60;;;;;;5058564;28;20460;-87
2022/03/06 09:20:33;;;;;;;11.80;7.63;;;8.30;36.50;;;;;;5043730;28;21369;-87
2022/03/06 09:23:00;;;;;;;9.23;6.80;;;8.30;36.60;;;;;;5042415;28;20463;-86
2022/03/06 09:25:32;;;;;;;19.77;11.17;;;8.30;36.30;;;;;;5060288;28;20451;-87
2022/03/06 09:28:00;;;;;;;13.47;9.73;;;8.40;36.80;;;;;;5037770;28;20458;-87
2022/03/06 09:30:28;;;;;;;16.57;9.17;;;8.30;35.80;;;;;;5060763;28;20482;-87
2022/03/06 09:32:56;;;;;;;11.30;8.60;;;8.40;36.80;;;;;;5078679;28;20451;-87
2022/03/06 09:35:23;;;;;;;18.40;10.80;;;8.40;37.00;;;;;;5059490;28;20479;-87
2022/03/06 09:37:51;;;;;;;18.23;10.57;;;8.60;37.10;;;;;;5060723;28;20528;-87
2022/03/06 09:40:18;;;;;;;13.60;7.20;;;8.70;37.00;;;;;;5027066;28;20499;-87
2022/03/06 09:42:45;;;;;;;13.90;7.73;;;8.80;37.30;;;;;;5078594;28;20459;-87
2022/03/06 09:45:14;;;;;;;11.93;7.13;;;8.80;36.30;;;;;;5061301;28;20515;-87
2022/03/06 09:47:44;;;;;;;31.90;12.67;;;8.80;36.60;;;;;;5067115;28;20447;-85
2022/03/06 09:50:14;;;;;;;23.63;13.00;;;9.00;36.10;;;;;;5067168;28;20498;-87
2022/03/06 09:52:42;;;;;;;12.10;7.90;;;9.20;35.50;;;;;;5050435;28;20483;-86
2022/03/06 09:55:10;;;;;;;12.30;7.10;;;9.30;34.80;;;;;;5062498;28;20475;-87
2022/03/06 09:57:38;;;;;;;11.63;7.17;;;9.60;33.80;;;;;;5024363;28;20440;-87
2022/03/06 10:00:07;;;;;;;9.03;5.40;;;9.50;31.70;;;;;;5034627;28;20517;-87
2022/03/06 10:02:51;;;;;;;9.20;6.33;;;9.30;29.70;;;;;;5034438;28;20447;-87
2022/03/06 10:05:28;;;;;;;10.70;7.20;;;9.50;28.80;;;;;;5038692;28;20478;-87
2022/03/06 10:08:15;;;;;;;7.30;6.07;;;9.50;29.80;;;;;;5067510;28;20462;-87
2022/03/06 10:10:41;;;;;;;9.40;5.87;;;9.50;30.90;;;;;;5067648;28;20483;-87
2022/03/06 10:13:17;;;;;;;9.60;6.53;;;9.60;28.70;;;;;;5067577;28;20459;-86
2022/03/06 10:15:58;;;;;;;9.23;6.03;;;9.20;28.60;;;;;;5057358;28;20475;-86
2022/03/06 10:18:25;;;;;;;8.77;6.30;;;9.00;29.20;;;;;;5067664;28;20451;-87
2022/03/06 10:20:53;;;;;;;8.97;7.00;;;8.90;29.50;;;;;;5049991;28;21023;-85
2022/03/06 10:23:27;;;;;;;8.47;6.00;;;9.00;28.40;;;;;;5064555;28;20451;-86
2022/03/06 10:26:01;;;;;;;14.13;8.30;;;9.20;29.70;;;;;;5084049;28;20464;-88
2022/03/06 10:28:30;;;;;;;9.53;6.80;;;9.20;29.10;;;;;;5067141;28;20452;-87
2022/03/06 10:31:04;;;;;;;8.50;5.73;;;9.20;29.10;;;;;;5048930;28;20511;-87
2022/03/06 10:33:31;;;;;;;10.80;7.17;;;9.30;29.30;;;;;;5051804;28;20489;-87
2022/03/06 10:36:02;;;;;;;10.93;7.60;;;9.20;28.70;;;;;;5065492;28;20479;-87
2022/03/06 10:38:31;;;;;;;10.90;6.00;;;9.10;29.10;;;;;;5032089;28;20858;-88
2022/03/06 10:41:00;;;;;;;12.53;6.20;;;9.20;28.50;;;;;;5051074;28;20459;-88
2022/03/06 10:43:29;;;;;;;8.17;6.10;;;9.30;28.10;;;;;;5069150;28;20460;-88
2022/03/06 10:46:07;;;;;;;9.10;5.93;;;9.40;28.00;;;;;;5064643;28;20459;-87
2022/03/06 10:48:35;;;;;;;9.83;6.27;;;9.40;28.20;;;;;;5049244;28;21092;-87
2022/03/06 10:51:05;;;;;;;10.23;6.47;;;9.40;28.00;;;;;;5032261;28;20474;-87
2022/03/06 10:53:32;;;;;;;8.00;5.87;;;9.30;27.90;;;;;;5037737;28;20453;-87
2022/03/06 10:56:08;;;;;;;10.33;6.70;;;9.30;27.70;;;;;;5062642;28;20553;-86
2022/03/06 10:58:38;;;;;;;9.00;6.00;;;9.20;27.40;;;;;;5040981;28;20447;-86
2022/03/06 11:01:05;;;;;;;11.50;6.70;;;9.10;28.10;;;;;;5065482;28;20560;-85
2022/03/06 11:03:34;;;;;;;9.10;6.00;;;9.10;28.20;;;;;;5052591;28;20829;-87
2022/03/06 11:06:03;;;;;;;13.00;6.27;;;9.10;27.90;;;;;;5067855;28;20455;-86
2022/03/06 11:08:30;;;;;;;12.20;7.10;;;9.10;28.20;;;;;;5034459;28;20456;-87
2022/03/06 11:10:57;;;;;;;7.93;6.80;;;9.40;28.80;;;;;;5083797;28;20482;-86
2022/03/06 11:13:25;;;;;;;9.87;6.70;;;9.50;28.80;;;;;;5039548;28;20579;-85
2022/03/06 11:15:52;;;;;;;8.40;6.23;;;9.50;29.50;;;;;;5064796;28;20472;-86
2022/03/06 11:18:20;;;;;;;8.43;6.20;;;9.40;29.20;;;;;;5052353;28;20492;-90
2022/03/06 11:20:47;;;;;;;8.83;5.80;;;9.80;38.90;;;;;;5064548;28;20498;-90
2022/03/06 11:23:27;;;;;;;8.60;6.10;;;10.20;34.60;;;;;;5069572;28;20470;-88
2022/03/06 11:26:18;;;;;;;9.77;7.07;;;10.30;28.30;;;;;;5065029;28;20459;-90
2022/03/06 11:29:03;;;;;;;11.67;6.37;;;9.60;29.60;;;;;;5049058;28;20445;-89
2022/03/06 11:31:43;;;;;;;9.50;5.73;;;9.90;32.40;;;;;;5065243;28;21064;-90
2022/03/06 11:34:11;;;;;;;11.80;7.20;;;10.20;29.20;;;;;;5063975;28;20497;-88
2022/03/06 11:36:46;;;;;;;9.33;5.60;;;10.50;27.60;;;;;;5049611;28;20697;-86
2022/03/06 11:39:36;;;;;;;10.93;7.17;;;10.20;26.30;;;;;;5029280;28;20444;-86
2022/03/06 11:42:05;;;;;;;8.70;6.47;;;10.00;27.20;;;;;;5047627;28;20542;-87
2022/03/06 11:44:34;;;;;;;10.33;6.17;;;10.10;27.50;;;;;;5041285;28;20464;-87
2022/03/06 11:47:01;;;;;;;9.47;5.90;;;10.10;27.20;;;;;;5085694;28;20526;-86
2022/03/06 11:49:34;;;;;;;8.70;6.07;;;10.00;27.10;;;;;;5030275;28;20452;-87
2022/03/06 11:52:01;;;;;;;9.10;6.77;;;9.90;28.40;;;;;;5047411;28;20507;-86
2022/03/06 11:54:43;;;;;;;9.17;5.83;;;10.00;27.80;;;;;;5062330;28;20467;-87
2022/03/06 11:57:10;;;;;;;10.20;6.70;;;10.10;27.70;;;;;;5028940;28;20866;-86
2022/03/06 11:59:39;;;;;;;6.40;5.57;;;9.90;29.00;;;;;;5064147;28;20463;-86
2022/03/06 12:02:10;;;;;;;7.33;5.63;;;9.60;29.20;;;;;;5084047;28;20452;-87
2022/03/06 12:04:40;;;;;;;7.57;5.57;;;9.80;29.40;;;;;;5067977;28;20451;-87
2022/03/06 12:07:09;;;;;;;7.40;5.57;;;9.90;29.10;;;;;;5064358;28;20466;-87
2022/03/06 12:09:38;;;;;;;7.80;5.93;;;9.60;29.00;;;;;;5084399;28;20456;-87
2022/03/06 12:12:09;;;;;;;5.80;5.07;;;9.60;29.60;;;;;;5065043;28;21003;-87
2022/03/06 12:14:38;;;;;;;7.40;5.53;;;9.80;29.10;;;;;;5038595;28;20475;-84
2022/03/06 12:17:39;;;;;;;8.80;6.07;;;9.80;29.00;;;;;;5022617;28;20458;-86
2022/03/06 12:20:26;;;;;;;10.33;6.37;;;10.00;27.60;;;;;;5030709;28;20555;-87
2022/03/06 12:23:06;;;;;;;14.00;6.70;;;9.80;28.10;;;;;;5064367;28;20830;-87
2022/03/06 12:25:38;;;;;;;9.13;6.63;;;9.90;28.30;;;;;;5048444;28;20958;-87
2022/03/06 12:28:25;;;;;;;8.87;6.37;;;10.20;27.30;;;;;;5049584;28;20454;-86
2022/03/06 12:30:55;;;;;;;9.10;6.53;;;10.40;27.30;;;;;;5082027;28;20475;-87
2022/03/06 12:33:38;;;;;;;11.13;7.33;;;10.50;27.20;;;;;;5065442;28;20816;-87
2022/03/06 12:36:10;;;;;;;8.70;6.27;;;10.60;27.80;;;;;;5063750;28;20553;-87
2022/03/06 12:38:37;;;;;;;9.10;5.50;;;10.20;27.00;;;;;;5065114;28;20455;-86
2022/03/06 12:41:05;;;;;;;8.40;6.40;;;10.00;26.80;;;;;;5065980;28;20468;-87
2022/03/06 12:43:34;;;;;;;6.47;5.53;;;9.90;27.50;;;;;;5062267;28;20933;-85
2022/03/06 12:46:01;;;;;;;7.97;6.20;;;9.70;27.70;;;;;;5048902;28;20463;-87
2022/03/06 12:48:29;;;;;;;10.40;7.93;;;9.90;28.40;;;;;;5081749;28;20471;-87
2022/03/06 12:50:56;;;;;;;9.77;6.80;;;10.10;27.30;;;;;;5062595;28;20479;-86
2022/03/06 12:53:23;;;;;;;9.60;6.33;;;10.00;27.40;;;;;;5063097;28;20797;-87
2022/03/06 12:55:57;;;;;;;9.60;6.00;;;10.20;27.70;;;;;;5064367;28;20878;-87
2022/03/06 12:58:39;;;;;;;6.77;5.73;;;10.30;27.20;;;;;;5048232;28;20456;-87